createdAt,value
2023-02-19T00:04:00.201Z,0
2023-02-19T00:09:06.633Z,0
2023-02-19T00:14:13.130Z,0
2023-02-19T00:19:19.575Z,0
2023-02-19T00:24:26.032Z,0
2023-02-19T00:29:33.082Z,0
2023-02-19T00:34:40.148Z,0
2023-02-19T00:39:47.070Z,0
2023-02-19T00:44:54.072Z,0
2023-02-19T00:50:01.070Z,0
2023-02-19T00:55:08.088Z,0
2023-02-19T01:00:15.098Z,0
2023-02-19T01:05:22.080Z,0
2023-02-19T01:10:29.075Z,0
2023-02-19T01:15:36.094Z,0
2023-02-19T01:20:43.085Z,0
2023-02-19T01:25:50.134Z,0
2023-02-19T01:30:57.085Z,0
2023-02-19T01:36:04.951Z,0
2023-02-19T01:41:12.804Z,0
2023-02-19T01:46:20.588Z,0
2023-02-19T01:51:28.416Z,0
2023-02-19T01:56:36.266Z,0
2023-02-19T02:01:44.094Z,0
2023-02-19T02:06:51.935Z,0
2023-02-19T02:11:59.789Z,0
2023-02-19T02:17:07.557Z,0
2023-02-19T02:22:15.409Z,0
2023-02-19T02:27:23.219Z,0
2023-02-19T02:32:31.041Z,0
2023-02-19T02:37:38.866Z,0
2023-02-19T02:42:46.721Z,0
2023-02-19T02:47:54.529Z,0
2023-02-19T02:53:02.377Z,0
2023-02-19T02:58:10.207Z,0
2023-02-19T03:03:18.012Z,0
2023-02-19T03:08:24.396Z,0
2023-02-19T03:13:30.431Z,0
2023-02-19T03:18:36.600Z,0
2023-02-19T03:23:42.733Z,0
2023-02-19T03:28:48.893Z,0
2023-02-19T03:33:55.033Z,0
2023-02-19T03:39:00.207Z,0
2023-02-19T03:44:06.314Z,0
2023-02-19T03:49:12.381Z,0
2023-02-19T03:54:18.478Z,0
2023-02-19T03:59:24.565Z,0
2023-02-19T04:04:30.655Z,0
2023-02-19T04:09:36.737Z,0
2023-02-19T04:14:42.834Z,0
2023-02-19T04:19:48.917Z,0
2023-02-19T04:24:55.031Z,0
2023-02-19T04:30:01.101Z,0
2023-02-19T04:35:07.214Z,0
2023-02-19T04:40:13.273Z,0
2023-02-19T04:45:19.352Z,0
2023-02-19T04:50:25.444Z,0
2023-02-19T04:55:31.537Z,0
2023-02-19T05:00:37.635Z,0
2023-02-19T05:05:43.710Z,0
2023-02-19T05:10:49.822Z,0
2023-02-19T05:15:54.901Z,0
2023-02-19T05:21:00.996Z,0
2023-02-19T05:26:07.084Z,0
2023-02-19T05:31:13.182Z,0
2023-02-19T05:36:19.260Z,0
2023-02-19T05:41:25.375Z,0
2023-02-19T05:46:31.443Z,0
2023-02-19T05:51:37.546Z,0
2023-02-19T05:56:43.628Z,0
2023-02-19T06:01:49.718Z,0
2023-02-19T06:06:55.809Z,0
2023-02-19T06:12:00.917Z,0
2023-02-19T06:17:07.003Z,4
2023-02-19T06:22:12.275Z,4
2023-02-19T06:27:18.193Z,4
2023-02-19T06:32:24.281Z,8
2023-02-19T06:37:30.377Z,8
2023-02-19T06:42:36.459Z,12
2023-02-19T06:47:42.556Z,16
2023-02-19T06:52:48.667Z,20
2023-02-19T06:57:54.747Z,32
2023-02-19T07:03:00.821Z,40
2023-02-19T07:13:13.011Z,44
2023-02-19T07:18:19.079Z,56
2023-02-19T07:23:25.211Z,68
2023-02-19T07:28:31.259Z,68
2023-02-19T07:33:37.348Z,68
2023-02-19T07:38:43.455Z,72
2023-02-19T07:43:49.529Z,80
2023-02-19T07:48:55.624Z,72
2023-02-19T07:54:01.726Z,76
2023-02-19T07:59:07.816Z,80
2023-02-19T08:04:13.982Z,88
2023-02-19T08:09:19.975Z,92
2023-02-19T08:14:26.089Z,92
2023-02-19T08:19:32.180Z,96
2023-02-19T08:24:38.351Z,100
2023-02-19T08:29:44.417Z,88
2023-02-19T08:34:50.419Z,92
2023-02-19T08:39:56.516Z,92
2023-02-19T08:45:01.618Z,132
2023-02-19T08:50:07.711Z,124
2023-02-19T08:55:13.792Z,140
2023-02-19T09:00:19.878Z,104
2023-02-19T09:05:26.103Z,156
2023-02-19T09:10:32.053Z,176
2023-02-19T09:15:38.139Z,160
2023-02-19T09:20:44.238Z,132
2023-02-19T09:25:50.340Z,140
2023-02-19T09:30:56.424Z,132
2023-02-19T09:36:02.508Z,160
2023-02-19T09:41:08.699Z,184
2023-02-19T09:46:14.686Z,164
2023-02-19T09:51:19.809Z,160
2023-02-19T09:56:25.990Z,216
2023-02-19T10:01:31.000Z,204
2023-02-19T10:06:37.076Z,232
2023-02-19T10:11:43.168Z,196
2023-02-19T10:16:49.272Z,228
2023-02-19T10:21:55.428Z,256
2023-02-19T10:27:01.451Z,200
2023-02-19T10:32:07.524Z,260
2023-02-19T10:37:13.603Z,264
2023-02-19T10:42:19.693Z,216
2023-02-19T10:47:25.792Z,148
2023-02-19T10:52:31.900Z,244
2023-02-19T10:57:37.974Z,220
2023-02-19T11:02:44.133Z,316
2023-02-19T11:07:50.141Z,200
2023-02-19T11:12:56.234Z,284
2023-02-19T11:18:02.322Z,216
2023-02-19T11:23:07.446Z,164
2023-02-19T11:28:13.520Z,204
2023-02-19T11:33:19.647Z,204
2023-02-19T11:38:25.696Z,248
2023-02-19T11:43:31.788Z,188
2023-02-19T11:48:37.878Z,172
2023-02-19T11:53:43.968Z,256
2023-02-19T11:58:50.049Z,240
2023-02-19T12:03:56.132Z,364
2023-02-19T12:09:01.251Z,172
2023-02-19T12:14:07.490Z,132
2023-02-19T12:19:13.515Z,196
2023-02-19T12:24:19.532Z,168
2023-02-19T12:29:25.600Z,268
2023-02-19T12:34:31.702Z,244
2023-02-19T12:39:37.807Z,276
2023-02-19T12:44:43.865Z,324
2023-02-19T12:49:49.980Z,280
2023-02-19T12:54:55.094Z,324
2023-02-19T13:00:01.172Z,388
2023-02-19T13:05:07.253Z,512
2023-02-19T13:10:13.354Z,140
2023-02-19T13:15:19.491Z,164
2023-02-19T13:20:25.523Z,124
2023-02-19T13:25:31.621Z,148
2023-02-19T13:30:37.698Z,144
2023-02-19T13:35:43.790Z,164
2023-02-19T13:40:49.879Z,560
2023-02-19T13:45:55.971Z,640
2023-02-19T13:51:02.055Z,640
2023-02-19T13:56:08.136Z,676
2023-02-19T14:01:14.229Z,512
2023-02-19T14:06:20.324Z,400
2023-02-19T14:11:26.410Z,372
2023-02-19T14:16:32.516Z,280
2023-02-19T14:21:38.717Z,216
2023-02-19T14:26:44.683Z,132
2023-02-19T14:31:50.767Z,68
2023-02-19T14:36:56.902Z,148
2023-02-19T14:42:01.966Z,100
2023-02-19T14:47:08.054Z,168
2023-02-19T14:52:14.143Z,120
2023-02-19T14:57:20.225Z,96
2023-02-19T15:02:26.360Z,112
2023-02-19T15:07:32.425Z,104
2023-02-19T15:12:38.528Z,108
2023-02-19T15:17:44.595Z,88
2023-02-19T15:22:50.673Z,88
2023-02-19T15:27:56.792Z,88
2023-02-19T15:33:02.940Z,80
2023-02-19T15:38:09.002Z,60
2023-02-19T15:43:15.045Z,44
2023-02-19T15:48:21.141Z,40
2023-02-19T15:53:27.210Z,36
2023-02-19T15:58:33.302Z,32
2023-02-19T16:03:39.413Z,28
2023-02-19T16:08:45.470Z,20
2023-02-19T16:13:51.597Z,16
2023-02-19T16:18:57.669Z,12
2023-02-19T16:24:03.748Z,8
2023-02-19T16:29:09.849Z,4
2023-02-19T16:34:15.099Z,4
2023-02-19T16:39:21.151Z,0
2023-02-19T16:44:27.124Z,0
2023-02-19T16:49:33.215Z,0
2023-02-19T16:54:39.308Z,0
2023-02-19T16:59:44.432Z,0
2023-02-19T17:04:50.525Z,0
2023-02-19T17:09:56.588Z,0
2023-02-19T17:15:02.699Z,0
2023-02-19T17:20:08.760Z,0
2023-02-19T17:25:14.862Z,0
2023-02-19T17:30:20.945Z,0
2023-02-19T17:35:27.028Z,0
2023-02-19T17:40:33.145Z,0
2023-02-19T17:45:39.197Z,0
2023-02-19T17:50:45.299Z,0
2023-02-19T17:55:51.382Z,0
2023-02-19T18:00:57.465Z,0
2023-02-19T18:06:03.579Z,0
2023-02-19T18:11:09.654Z,0
2023-02-19T18:16:15.727Z,0
2023-02-19T18:21:21.935Z,0
2023-02-19T18:26:27.910Z,0
2023-02-19T18:31:34.007Z,0
2023-02-19T18:36:40.094Z,0
2023-02-19T18:41:46.224Z,0
2023-02-19T18:46:52.277Z,0
2023-02-19T18:51:58.365Z,0
2023-02-19T18:57:04.481Z,0
2023-02-19T19:02:09.572Z,0
2023-02-19T19:07:15.758Z,0
2023-02-19T19:12:21.789Z,0
2023-02-19T19:17:27.885Z,0
2023-02-19T19:22:33.982Z,0
2023-02-19T19:27:40.019Z,0
2023-02-19T19:32:46.172Z,0
2023-02-19T19:37:52.189Z,0
2023-02-19T19:42:58.285Z,0
2023-02-19T19:48:04.379Z,0
2023-02-19T19:53:10.455Z,0
2023-02-19T19:58:16.574Z,0
2023-02-19T20:03:22.657Z,0
2023-02-19T20:08:28.720Z,0
2023-02-19T20:13:34.888Z,0
2023-02-19T20:18:40.900Z,0
2023-02-19T20:23:46.985Z,0
2023-02-19T20:28:53.084Z,0
2023-02-19T20:33:59.197Z,0
2023-02-19T20:39:05.254Z,0
2023-02-19T20:44:11.340Z,0
2023-02-19T20:49:17.464Z,0
2023-02-19T20:54:23.549Z,0
2023-02-19T20:59:29.636Z,0
2023-02-19T21:04:35.707Z,0
2023-02-19T21:09:41.861Z,0
2023-02-19T21:14:48.007Z,0
2023-02-19T21:19:54.139Z,0
2023-02-19T21:25:00.312Z,0
2023-02-19T21:30:06.444Z,0
2023-02-19T21:35:12.661Z,0
2023-02-19T21:40:18.784Z,0
2023-02-19T21:45:24.971Z,0
2023-02-19T21:50:31.070Z,0
2023-02-19T21:55:37.197Z,0
2023-02-19T22:00:43.348Z,0
2023-02-19T22:05:49.506Z,0
2023-02-19T22:10:55.647Z,0
2023-02-19T22:16:01.918Z,0
2023-02-19T22:21:08.183Z,0
2023-02-19T22:26:14.442Z,0
2023-02-19T22:31:20.731Z,0
2023-02-19T22:36:26.995Z,0
2023-02-19T22:41:33.241Z,0
2023-02-19T22:46:39.535Z,0
2023-02-19T22:51:45.761Z,0
2023-02-19T22:56:52.110Z,0
2023-02-19T23:01:58.294Z,0
2023-02-19T23:07:04.611Z,0
2023-02-19T23:12:10.887Z,0
2023-02-19T23:17:17.097Z,0
2023-02-19T23:22:23.571Z,0
2023-02-19T23:27:30.041Z,0
2023-02-19T23:32:36.500Z,0
2023-02-19T23:37:42.989Z,0
2023-02-19T23:42:49.434Z,0
2023-02-19T23:47:55.899Z,0
2023-02-19T23:53:02.374Z,0
2023-02-19T23:58:08.849Z,0
